createdAt,value
2019-03-17T00:00:09.556Z,997.67
2019-03-17T00:01:12.130Z,997.60
2019-03-17T00:02:09.525Z,997.57
2019-03-17T00:03:09.492Z,997.43
2019-03-17T00:04:09.471Z,997.52
2019-03-17T00:05:09.456Z,997.41
2019-03-17T00:06:09.448Z,997.49
2019-03-17T00:07:09.416Z,997.51
2019-03-17T00:08:09.422Z,997.45
2019-03-17T00:09:09.384Z,997.38
2019-03-17T00:10:09.356Z,997.37
2019-03-17T00:11:09.346Z,997.43
2019-03-17T00:12:09.323Z,997.38
2019-03-17T00:13:09.295Z,997.29
2019-03-17T00:14:09.295Z,997.37
2019-03-17T00:15:09.263Z,997.34
2019-03-17T00:16:09.243Z,997.26
2019-03-17T00:17:09.221Z,997.31
2019-03-17T00:18:09.202Z,997.25
2019-03-17T00:19:09.199Z,997.27
2019-03-17T00:20:09.161Z,997.28
2019-03-17T00:21:09.143Z,997.31
2019-03-17T00:22:09.120Z,997.31
2019-03-17T00:23:09.098Z,997.29
2019-03-17T00:24:09.085Z,997.28
2019-03-17T00:25:10.228Z,997.30
2019-03-17T00:26:09.054Z,997.21
2019-03-17T00:27:09.027Z,997.22
2019-03-17T00:28:09.017Z,997.20
2019-03-17T00:29:08.995Z,997.22
2019-03-17T00:30:09.001Z,997.20
2019-03-17T00:31:08.947Z,997.19
2019-03-17T00:32:08.931Z,997.24
2019-03-17T00:33:08.924Z,997.25
2019-03-17T00:34:08.897Z,997.18
2019-03-17T00:35:08.925Z,997.10
2019-03-17T00:36:08.855Z,997.14
2019-03-17T00:37:08.863Z,997.18
2019-03-17T00:38:08.842Z,997.04
2019-03-17T00:39:08.796Z,997.13
2019-03-17T00:40:08.780Z,997.11
2019-03-17T00:41:08.759Z,997.03
2019-03-17T00:42:08.737Z,997.07
2019-03-17T00:43:08.717Z,997.13
2019-03-17T00:44:08.721Z,997.12
2019-03-17T00:45:11.375Z,997.06
2019-03-17T00:46:08.661Z,997.01
2019-03-17T00:47:10.733Z,997.01
2019-03-17T00:48:08.627Z,997.06
2019-03-17T00:49:08.620Z,997.02
2019-03-17T00:50:08.598Z,997.04
2019-03-17T00:51:08.566Z,997.15
2019-03-17T00:52:08.552Z,997.01
2019-03-17T00:53:08.524Z,997.07
2019-03-17T00:54:08.527Z,997.02
2019-03-17T00:55:08.493Z,996.97
2019-03-17T00:56:08.471Z,997.01
2019-03-17T00:57:08.455Z,996.93
2019-03-17T00:58:08.438Z,996.99
2019-03-17T00:59:08.412Z,996.94
2019-03-17T01:00:08.402Z,996.93
2019-03-17T01:01:08.374Z,996.90
2019-03-17T01:02:08.366Z,996.95
2019-03-17T01:03:08.339Z,996.97
2019-03-17T01:04:08.317Z,996.89
2019-03-17T01:05:08.313Z,996.94
2019-03-17T01:06:08.275Z,996.89
2019-03-17T01:07:08.260Z,996.88
2019-03-17T01:08:08.239Z,996.86
2019-03-17T01:09:08.214Z,996.88
2019-03-17T01:10:08.204Z,996.80
2019-03-17T01:11:08.204Z,996.82
2019-03-17T01:12:08.161Z,996.86
2019-03-17T01:13:08.161Z,996.85
2019-03-17T01:14:08.119Z,996.78
2019-03-17T01:15:08.101Z,996.79
2019-03-17T01:16:08.085Z,996.76
2019-03-17T01:17:08.087Z,996.74
2019-03-17T01:18:08.046Z,996.65
2019-03-17T01:19:08.017Z,996.58
2019-03-17T01:20:08.006Z,996.48
2019-03-17T01:21:07.988Z,996.57
2019-03-17T01:22:07.981Z,996.52
2019-03-17T01:23:07.947Z,996.51
2019-03-17T01:24:10.282Z,996.43
2019-03-17T01:25:07.902Z,996.49
2019-03-17T01:26:07.912Z,996.48
2019-03-17T01:27:07.873Z,996.39
2019-03-17T01:28:07.845Z,996.43
2019-03-17T01:29:07.831Z,996.42
2019-03-17T01:30:07.813Z,996.37
2019-03-17T01:31:07.787Z,996.40
2019-03-17T01:32:07.789Z,996.31
2019-03-17T01:33:07.751Z,996.38
2019-03-17T01:34:07.733Z,996.37
2019-03-17T01:35:09.432Z,996.35
2019-03-17T01:36:07.698Z,996.36
2019-03-17T01:37:07.688Z,996.38
2019-03-17T01:38:07.655Z,996.36
2019-03-17T01:39:07.638Z,996.35
2019-03-17T01:40:07.642Z,996.38
2019-03-17T01:41:07.618Z,996.35
2019-03-17T01:42:07.578Z,996.38
2019-03-17T01:43:07.555Z,996.35
2019-03-17T01:44:07.537Z,996.32
2019-03-17T01:45:07.519Z,996.35
2019-03-17T01:46:07.516Z,996.35
2019-03-17T01:47:07.481Z,996.40
2019-03-17T01:48:07.457Z,996.38
2019-03-17T01:49:07.438Z,996.43
2019-03-17T01:50:07.422Z,996.38
2019-03-17T01:51:07.441Z,996.33
2019-03-17T01:52:07.460Z,996.37
2019-03-17T01:53:07.375Z,996.36
2019-03-17T01:54:07.403Z,996.31
2019-03-17T01:55:07.327Z,996.37
2019-03-17T01:56:07.303Z,996.27
2019-03-17T01:57:07.285Z,996.31
2019-03-17T01:58:07.281Z,996.38
2019-03-17T01:59:07.265Z,996.36
2019-03-17T02:00:07.225Z,996.36
2019-03-17T02:01:07.208Z,996.32
2019-03-17T02:02:07.182Z,996.38
2019-03-17T02:03:07.164Z,996.30
2019-03-17T02:04:07.165Z,996.29
2019-03-17T02:05:07.129Z,996.28
2019-03-17T02:06:07.111Z,996.27
2019-03-17T02:07:07.086Z,996.25
2019-03-17T02:08:07.068Z,996.28
2019-03-17T02:09:07.066Z,996.29
2019-03-17T02:10:07.047Z,996.23
2019-03-17T02:11:07.012Z,996.27
2019-03-17T02:12:07.004Z,996.30
2019-03-17T02:13:06.970Z,996.25
2019-03-17T02:14:06.955Z,996.16
2019-03-17T02:15:06.932Z,996.21
2019-03-17T02:16:06.930Z,996.22
2019-03-17T02:17:06.900Z,996.17
2019-03-17T02:18:07.515Z,996.11
2019-03-17T02:19:06.855Z,996.12
2019-03-17T02:20:06.837Z,996.12
2019-03-17T02:21:06.849Z,996.15
2019-03-17T02:22:06.825Z,996.09
2019-03-17T02:23:06.773Z,996.03
2019-03-17T02:24:06.756Z,996.04
2019-03-17T02:25:06.746Z,995.95
2019-03-17T02:26:06.725Z,996.03
2019-03-17T02:27:06.703Z,995.98
2019-03-17T02:28:06.700Z,995.99
2019-03-17T02:29:06.658Z,996.00
2019-03-17T02:30:06.656Z,995.90
2019-03-17T02:31:06.620Z,995.78
2019-03-17T02:32:06.600Z,995.69
2019-03-17T02:33:06.583Z,995.76
2019-03-17T02:34:06.567Z,995.64
2019-03-17T02:35:06.559Z,995.71
2019-03-17T02:36:06.522Z,995.72
2019-03-17T02:37:06.507Z,995.76
2019-03-17T02:38:06.484Z,995.71
2019-03-17T02:39:06.657Z,995.66
2019-03-17T02:40:06.446Z,995.78
2019-03-17T02:41:06.424Z,995.74
2019-03-17T02:42:06.404Z,995.76
2019-03-17T02:43:06.398Z,995.70
2019-03-17T02:44:06.384Z,995.65
2019-03-17T02:45:06.363Z,995.58
2019-03-17T02:46:06.328Z,995.68
2019-03-17T02:47:06.318Z,995.59
2019-03-17T02:48:06.286Z,995.60
2019-03-17T02:49:06.272Z,995.56
2019-03-17T02:50:06.265Z,995.75
2019-03-17T02:51:06.235Z,995.58
2019-03-17T02:52:06.220Z,995.66
2019-03-17T02:53:06.190Z,995.53
2019-03-17T02:54:06.228Z,995.41
2019-03-17T02:55:06.200Z,995.47
2019-03-17T02:56:06.130Z,995.15
2019-03-17T02:57:06.137Z,995.50
2019-03-17T02:58:06.094Z,995.39
2019-03-17T02:59:06.085Z,995.47
2019-03-17T03:00:06.069Z,995.56
2019-03-17T03:01:06.085Z,995.48
2019-03-17T03:02:06.018Z,995.48
2019-03-17T03:03:05.999Z,995.48
2019-03-17T03:04:05.972Z,995.40
2019-03-17T03:05:05.960Z,995.49
2019-03-17T03:06:05.962Z,995.45
2019-03-17T03:07:05.926Z,995.40
2019-03-17T03:08:05.896Z,995.39
2019-03-17T03:09:05.883Z,995.42
2019-03-17T03:10:05.859Z,995.31
2019-03-17T03:11:05.849Z,995.23
2019-03-17T03:12:05.838Z,995.35
2019-03-17T03:13:05.815Z,995.31
2019-03-17T03:14:05.778Z,995.30
2019-03-17T03:15:05.759Z,995.33
2019-03-17T03:16:06.360Z,995.29
2019-03-17T03:17:05.719Z,995.32
2019-03-17T03:18:05.703Z,995.23
2019-03-17T03:19:05.697Z,995.26
2019-03-17T03:20:05.668Z,995.21
2019-03-17T03:21:05.636Z,995.23
2019-03-17T03:22:05.619Z,995.17
2019-03-17T03:23:05.616Z,995.26
2019-03-17T03:24:05.606Z,995.20
2019-03-17T03:25:05.575Z,995.14
2019-03-17T03:26:05.542Z,995.14
2019-03-17T03:27:05.521Z,995.05
2019-03-17T03:28:05.506Z,995.17
2019-03-17T03:29:05.502Z,995.16
2019-03-17T03:30:05.480Z,995.24
2019-03-17T03:31:05.471Z,995.25
2019-03-17T03:32:05.426Z,995.36
2019-03-17T03:33:05.401Z,995.33
2019-03-17T03:34:05.386Z,995.23
2019-03-17T03:35:05.382Z,995.26
2019-03-17T03:36:11.462Z,995.24
2019-03-17T03:37:05.326Z,995.24
2019-03-17T03:38:05.303Z,995.21
2019-03-17T03:39:05.288Z,995.28
2019-03-17T03:40:05.267Z,995.23
2019-03-17T03:41:05.264Z,995.29
2019-03-17T03:42:05.224Z,995.18
2019-03-17T03:43:05.205Z,995.12
2019-03-17T03:44:05.192Z,995.32
2019-03-17T03:45:05.172Z,995.33
2019-03-17T03:46:05.150Z,995.27
2019-03-17T03:47:05.145Z,995.17
2019-03-17T03:48:05.110Z,995.24
2019-03-17T03:49:05.093Z,995.32
2019-03-17T03:50:05.071Z,995.29
2019-03-17T03:51:05.066Z,995.21
2019-03-17T03:52:05.035Z,995.15
2019-03-17T03:53:05.019Z,995.18
2019-03-17T03:54:04.992Z,995.16
2019-03-17T03:55:04.972Z,995.09
2019-03-17T03:56:04.969Z,995.19
2019-03-17T03:57:04.966Z,995.16
2019-03-17T03:58:04.952Z,995.28
2019-03-17T04:00:47.010Z,995.03
2019-03-17T04:01:46.998Z,995.07
2019-03-17T04:02:46.969Z,995.06
2019-03-17T04:03:46.940Z,995.08
2019-03-17T04:04:46.928Z,995.00
2019-03-17T04:05:46.907Z,995.01
2019-03-17T04:06:46.904Z,995.15
2019-03-17T04:07:46.862Z,995.08
2019-03-17T04:08:46.841Z,995.03
2019-03-17T04:09:46.832Z,995.09
2019-03-17T04:10:46.814Z,995.04
2019-03-17T04:11:46.783Z,995.06
2019-03-17T04:12:46.780Z,995.05
2019-03-17T04:13:46.742Z,995.14
2019-03-17T04:14:46.722Z,995.08
2019-03-17T04:15:46.701Z,994.97
2019-03-17T04:16:46.688Z,995.01
2019-03-17T04:17:46.664Z,995.02
2019-03-17T04:18:46.664Z,994.99
2019-03-17T04:19:46.622Z,995.02
2019-03-17T04:20:46.603Z,994.98
2019-03-17T04:21:46.588Z,995.02
2019-03-17T04:22:46.567Z,994.98
2019-03-17T04:23:46.546Z,994.91
2019-03-17T04:24:46.560Z,994.97
2019-03-17T04:25:46.505Z,994.97
2019-03-17T04:26:46.480Z,995.04
2019-03-17T04:27:46.459Z,995.01
2019-03-17T04:28:46.441Z,994.97
2019-03-17T04:29:46.421Z,994.98
2019-03-17T04:30:46.421Z,994.95
2019-03-17T04:31:46.434Z,995.06
2019-03-17T04:32:46.368Z,995.00
2019-03-17T04:33:46.344Z,995.01
2019-03-17T04:34:46.337Z,995.08
2019-03-17T04:35:46.302Z,995.04
2019-03-17T04:36:46.299Z,995.09
2019-03-17T04:37:46.267Z,994.99
2019-03-17T04:38:46.261Z,995.15
2019-03-17T04:41:28.511Z,995.02
2019-03-17T04:42:28.482Z,995.03
2019-03-17T04:43:28.472Z,995.03
2019-03-17T04:44:28.464Z,995.12
2019-03-17T04:45:28.433Z,995.03
2019-03-17T04:46:29.125Z,995.10
2019-03-17T04:47:28.385Z,994.98
2019-03-17T04:48:28.370Z,995.02
2019-03-17T04:49:28.371Z,995.01
2019-03-17T04:50:28.328Z,995.13
2019-03-17T04:51:28.342Z,994.96
2019-03-17T04:52:28.284Z,995.18
2019-03-17T04:53:28.268Z,995.23
2019-03-17T04:54:28.263Z,995.10
2019-03-17T04:55:28.224Z,995.11
2019-03-17T04:56:28.215Z,995.09
2019-03-17T04:57:28.186Z,995.18
2019-03-17T04:58:28.186Z,995.16
2019-03-17T04:59:28.142Z,995.18
2019-03-17T05:00:28.124Z,995.21
2019-03-17T05:01:28.105Z,995.18
2019-03-17T05:02:28.086Z,995.09
2019-03-17T05:03:28.084Z,995.01
2019-03-17T05:04:28.065Z,995.06
2019-03-17T05:05:28.023Z,995.12
2019-03-17T05:06:28.008Z,995.16
2019-03-17T05:07:27.983Z,995.19
2019-03-17T05:08:27.969Z,995.06
2019-03-17T05:09:27.940Z,995.06
2019-03-17T05:10:27.936Z,995.04
2019-03-17T05:11:27.903Z,994.99
2019-03-17T05:12:27.884Z,994.99
2019-03-17T05:13:27.860Z,995.05
2019-03-17T05:14:27.852Z,995.02
2019-03-17T05:15:27.820Z,994.98
2019-03-17T05:16:27.798Z,995.03
2019-03-17T05:17:27.780Z,994.98
2019-03-17T05:18:27.763Z,994.95
2019-03-17T05:19:27.738Z,994.95
2019-03-17T05:20:27.732Z,995.01
2019-03-17T05:21:27.703Z,994.88
2019-03-17T05:22:27.674Z,994.94
2019-03-17T05:23:27.654Z,995.04
2019-03-17T05:24:27.629Z,994.92
2019-03-17T05:25:27.609Z,994.98
2019-03-17T05:26:29.604Z,995.01
2019-03-17T05:27:27.611Z,994.95
2019-03-17T05:28:27.550Z,995.03
2019-03-17T05:29:27.526Z,995.05
2019-03-17T05:30:27.513Z,995.12
2019-03-17T05:31:27.503Z,995.04
2019-03-17T05:32:27.473Z,995.05
2019-03-17T05:33:27.442Z,994.98
2019-03-17T05:34:27.434Z,995.06
2019-03-17T05:35:27.407Z,995.00
2019-03-17T05:36:27.384Z,995.03
2019-03-17T05:37:27.378Z,995.01
2019-03-17T05:38:27.358Z,995.09
2019-03-17T05:39:27.317Z,995.10
2019-03-17T05:40:27.313Z,994.97
2019-03-17T05:41:27.330Z,995.03
2019-03-17T05:42:27.270Z,995.04
2019-03-17T05:43:27.257Z,995.05
2019-03-17T05:44:27.250Z,995.10
2019-03-17T05:45:27.200Z,995.14
2019-03-17T05:46:27.273Z,995.18
2019-03-17T05:47:27.155Z,995.21
2019-03-17T05:48:27.132Z,995.15
2019-03-17T05:49:27.121Z,995.04
2019-03-17T05:50:27.097Z,994.98
2019-03-17T05:51:27.071Z,995.09
2019-03-17T05:52:27.065Z,995.10
2019-03-17T05:53:27.047Z,995.06
2019-03-17T05:54:27.016Z,995.03
2019-03-17T05:55:26.985Z,995.14
2019-03-17T05:56:26.967Z,995.19
2019-03-17T05:57:26.944Z,995.11
2019-03-17T05:58:26.926Z,995.15
2019-03-17T05:59:26.915Z,995.23
2019-03-17T06:00:26.884Z,995.27
2019-03-17T06:01:26.857Z,995.20
2019-03-17T06:02:26.844Z,995.39
2019-03-17T06:03:26.818Z,995.39
2019-03-17T06:04:26.818Z,995.31
2019-03-17T06:05:26.777Z,995.33
2019-03-17T06:06:26.758Z,995.38
2019-03-17T06:07:26.735Z,995.32
2019-03-17T06:08:26.716Z,995.44
2019-03-17T06:09:26.716Z,995.27
2019-03-17T06:10:26.680Z,995.35
2019-03-17T06:11:26.668Z,995.38
2019-03-17T06:12:26.632Z,995.31
2019-03-17T06:13:26.614Z,995.40
2019-03-17T06:14:26.592Z,995.41
2019-03-17T06:15:26.589Z,995.38
2019-03-17T06:16:26.550Z,995.43
2019-03-17T06:17:26.528Z,995.40
2019-03-17T06:18:26.509Z,995.41
2019-03-17T06:19:26.487Z,995.45
2019-03-17T06:20:26.482Z,995.47
2019-03-17T06:21:26.450Z,995.52
2019-03-17T06:22:26.422Z,995.47
2019-03-17T06:23:26.401Z,995.57
2019-03-17T06:24:26.400Z,995.57
2019-03-17T06:25:28.159Z,995.59
2019-03-17T06:26:26.345Z,995.51
2019-03-17T06:27:26.321Z,995.51
2019-03-17T06:28:26.305Z,995.44
2019-03-17T06:29:27.133Z,995.48
2019-03-17T06:30:26.258Z,995.54
2019-03-17T06:31:26.258Z,995.52
2019-03-17T06:32:26.219Z,995.52
2019-03-17T06:33:26.192Z,995.51
2019-03-17T06:34:27.101Z,995.54
2019-03-17T06:35:26.152Z,995.54
2019-03-17T06:36:26.130Z,995.63
2019-03-17T06:37:30.913Z,995.66
2019-03-17T06:38:26.094Z,995.63
2019-03-17T06:39:26.076Z,995.61
2019-03-17T06:40:26.047Z,995.72
2019-03-17T06:41:26.028Z,995.71
2019-03-17T06:42:26.028Z,995.64
2019-03-17T06:43:26.003Z,995.78
2019-03-17T06:44:25.959Z,995.72
2019-03-17T06:45:25.950Z,995.77
2019-03-17T06:46:25.928Z,995.76
2019-03-17T06:47:25.915Z,995.79
2019-03-17T06:48:26.563Z,995.88
2019-03-17T06:49:25.856Z,995.85
2019-03-17T06:50:25.842Z,995.83
2019-03-17T06:51:25.814Z,995.91
2019-03-17T06:52:25.818Z,995.91
2019-03-17T06:53:25.774Z,995.87
2019-03-17T06:54:25.754Z,995.92
2019-03-17T06:55:25.738Z,995.86
2019-03-17T06:56:25.713Z,995.95
2019-03-17T06:57:25.707Z,995.96
2019-03-17T06:58:25.667Z,995.93
2019-03-17T06:59:25.648Z,996.00
2019-03-17T07:00:25.628Z,996.00
2019-03-17T07:01:25.606Z,996.01
2019-03-17T07:02:25.609Z,995.98
2019-03-17T07:03:25.577Z,996.06
2019-03-17T07:04:25.543Z,996.04
2019-03-17T07:05:25.539Z,996.06
2019-03-17T07:06:25.515Z,996.07
2019-03-17T07:07:25.500Z,996.14
2019-03-17T07:08:25.459Z,996.09
2019-03-17T07:09:25.441Z,996.15
2019-03-17T07:10:25.442Z,996.12
2019-03-17T07:11:25.401Z,996.23
2019-03-17T07:12:25.395Z,996.28
2019-03-17T07:13:25.382Z,996.21
2019-03-17T07:14:25.341Z,996.27
2019-03-17T07:15:25.320Z,996.29
2019-03-17T07:16:25.295Z,996.29
2019-03-17T07:17:25.280Z,996.32
2019-03-17T07:18:25.262Z,996.42
2019-03-17T07:19:25.264Z,996.45
2019-03-17T07:20:25.211Z,996.48
2019-03-17T07:21:25.197Z,996.48
2019-03-17T07:22:25.168Z,996.47
2019-03-17T07:23:25.160Z,996.47
2019-03-17T07:24:25.163Z,996.51
2019-03-17T07:25:25.112Z,996.50
2019-03-17T07:26:25.093Z,996.50
2019-03-17T07:27:25.086Z,996.50
2019-03-17T07:28:25.067Z,996.49
2019-03-17T07:29:25.054Z,996.56
2019-03-17T07:30:25.014Z,996.61
2019-03-17T07:31:24.988Z,996.63
2019-03-17T07:32:24.966Z,996.65
2019-03-17T07:33:24.952Z,996.68
2019-03-17T07:34:24.943Z,996.72
2019-03-17T07:35:24.967Z,996.78
2019-03-17T07:36:24.894Z,996.73
2019-03-17T07:37:24.867Z,996.80
2019-03-17T07:38:24.851Z,996.84
2019-03-17T07:39:24.842Z,996.78
2019-03-17T07:40:24.804Z,996.79
2019-03-17T07:41:24.783Z,996.81
2019-03-17T07:42:24.758Z,996.88
2019-03-17T07:43:24.770Z,996.82
2019-03-17T07:44:24.726Z,996.88
2019-03-17T07:45:24.692Z,996.92
2019-03-17T07:46:24.686Z,996.97
2019-03-17T07:47:24.666Z,996.90
2019-03-17T07:48:24.673Z,997.16
2019-03-17T07:49:24.633Z,997.37
2019-03-17T07:50:24.600Z,997.27
2019-03-17T07:51:24.577Z,997.21
2019-03-17T07:52:24.552Z,997.17
2019-03-17T07:53:24.534Z,997.19
2019-03-17T07:54:24.560Z,997.21
2019-03-17T07:55:24.491Z,997.21
2019-03-17T07:56:24.499Z,997.28
2019-03-17T07:57:24.471Z,997.28
2019-03-17T07:58:24.431Z,997.37
2019-03-17T07:59:24.430Z,997.35
2019-03-17T08:00:31.948Z,997.42
2019-03-17T08:01:24.382Z,997.44
2019-03-17T08:02:24.347Z,997.45
2019-03-17T08:03:24.333Z,997.47
2019-03-17T08:04:24.315Z,997.44
2019-03-17T08:05:24.306Z,997.42
2019-03-17T08:06:24.270Z,997.47
2019-03-17T08:07:24.245Z,997.46
2019-03-17T08:08:24.292Z,997.49
2019-03-17T08:09:24.204Z,997.52
2019-03-17T08:12:06.549Z,997.58
2019-03-17T08:13:06.537Z,997.67
2019-03-17T08:14:06.498Z,997.62
2019-03-17T08:15:06.493Z,997.56
2019-03-17T08:16:06.466Z,997.54
2019-03-17T08:17:06.447Z,997.57
2019-03-17T08:18:06.422Z,997.57
2019-03-17T08:19:06.397Z,997.52
2019-03-17T08:20:06.378Z,997.56
2019-03-17T08:21:06.379Z,997.59
2019-03-17T08:22:06.339Z,997.58
2019-03-17T08:23:06.311Z,997.59
2019-03-17T08:24:06.291Z,997.58
2019-03-17T08:25:06.275Z,997.55
2019-03-17T08:26:06.276Z,997.60
2019-03-17T08:27:06.231Z,997.59
2019-03-17T08:28:06.293Z,997.67
2019-03-17T08:29:06.191Z,997.68
2019-03-17T08:30:06.182Z,997.69
2019-03-17T08:31:06.139Z,997.73
2019-03-17T08:32:06.157Z,997.73
2019-03-17T08:33:06.118Z,997.78
2019-03-17T08:34:06.086Z,997.76
2019-03-17T08:35:06.069Z,997.79
2019-03-17T08:36:06.045Z,997.79
2019-03-17T08:37:06.034Z,997.84
2019-03-17T08:38:06.022Z,997.81
2019-03-17T08:39:05.983Z,997.89
2019-03-17T08:40:05.969Z,997.87
2019-03-17T08:41:05.963Z,997.90
2019-03-17T08:42:05.930Z,997.92
2019-03-17T08:43:05.908Z,997.99
2019-03-17T08:44:05.898Z,998.00
2019-03-17T08:45:05.903Z,997.99
2019-03-17T08:46:05.857Z,997.99
2019-03-17T08:47:05.818Z,997.95
2019-03-17T08:48:05.811Z,997.93
2019-03-17T08:49:05.799Z,998.05
2019-03-17T08:50:05.761Z,997.96
2019-03-17T08:51:05.741Z,998.12
2019-03-17T08:52:05.727Z,998.14
2019-03-17T08:53:05.708Z,998.17
2019-03-17T08:54:05.684Z,998.15
2019-03-17T08:55:05.685Z,998.11
2019-03-17T08:56:05.655Z,998.09
2019-03-17T08:57:05.626Z,998.18
2019-03-17T08:58:05.639Z,998.19
2019-03-17T08:59:05.586Z,998.17
2019-03-17T09:00:05.584Z,998.15
2019-03-17T09:01:05.556Z,998.26
2019-03-17T09:02:05.531Z,998.14
2019-03-17T09:03:05.503Z,998.16
2019-03-17T09:04:05.482Z,998.10
2019-03-17T09:05:05.464Z,998.13
2019-03-17T09:06:05.467Z,998.11
2019-03-17T09:07:05.422Z,998.05
2019-03-17T09:08:05.411Z,998.12
2019-03-17T09:09:05.384Z,998.28
2019-03-17T09:10:05.376Z,998.38
2019-03-17T09:11:05.335Z,998.32
2019-03-17T09:12:05.336Z,998.39
2019-03-17T09:13:05.322Z,998.40
2019-03-17T09:14:05.288Z,998.16
2019-03-17T09:15:05.260Z,998.35
2019-03-17T09:16:05.243Z,998.36
2019-03-17T09:17:14.149Z,998.48
2019-03-17T09:18:05.199Z,998.41
2019-03-17T09:19:05.177Z,998.47
2019-03-17T09:20:05.183Z,998.52
2019-03-17T09:21:05.159Z,998.49
2019-03-17T09:22:05.145Z,998.51
2019-03-17T09:23:05.119Z,998.51
2019-03-17T09:24:16.595Z,998.52
2019-03-17T09:25:05.067Z,998.54
2019-03-17T09:26:05.041Z,998.56
2019-03-17T09:27:05.031Z,998.61
2019-03-17T09:28:04.999Z,998.78
2019-03-17T09:29:05.016Z,998.54
2019-03-17T09:30:04.959Z,998.66
2019-03-17T09:31:07.497Z,998.55
2019-03-17T09:32:04.938Z,998.57
2019-03-17T09:33:04.907Z,998.52
2019-03-17T09:34:04.886Z,998.51
2019-03-17T09:35:04.894Z,998.57
2019-03-17T09:36:04.850Z,998.65
2019-03-17T09:37:04.857Z,998.62
2019-03-17T09:38:04.806Z,998.70
2019-03-17T09:39:04.793Z,998.62
2019-03-17T09:40:04.769Z,998.61
2019-03-17T09:41:04.752Z,998.60
2019-03-17T09:42:04.755Z,998.52
2019-03-17T09:43:04.729Z,998.55
2019-03-17T09:44:04.712Z,998.64
2019-03-17T09:45:04.671Z,998.61
2019-03-17T09:46:04.657Z,998.50
2019-03-17T09:47:04.636Z,998.56
2019-03-17T09:48:04.617Z,998.59
2019-03-17T09:49:04.594Z,998.64
2019-03-17T09:50:04.598Z,998.65
2019-03-17T09:51:04.554Z,998.64
2019-03-17T09:52:04.540Z,998.60
2019-03-17T09:53:04.538Z,998.60
2019-03-17T09:54:04.499Z,998.65
2019-03-17T09:55:04.482Z,998.74
2019-03-17T09:56:04.474Z,998.78
2019-03-17T09:57:04.463Z,998.72
2019-03-17T09:58:04.425Z,998.79
2019-03-17T09:59:04.415Z,998.79
2019-03-17T10:00:04.397Z,998.95
2019-03-17T10:01:04.389Z,998.77
2019-03-17T10:02:04.344Z,998.97
2019-03-17T10:03:04.323Z,998.77
2019-03-17T10:04:04.313Z,998.89
2019-03-17T10:05:04.299Z,998.91
2019-03-17T10:06:04.297Z,998.79
2019-03-17T10:07:04.264Z,998.82
2019-03-17T10:08:04.230Z,998.92
2019-03-17T10:09:04.217Z,998.87
2019-03-17T10:10:04.196Z,998.90
2019-03-17T10:11:04.194Z,998.88
2019-03-17T10:12:04.174Z,998.89
2019-03-17T10:13:04.144Z,998.92
2019-03-17T10:14:04.116Z,998.92
2019-03-17T10:15:04.107Z,999.01
2019-03-17T10:16:04.085Z,998.94
2019-03-17T10:17:04.075Z,998.93
2019-03-17T10:18:04.054Z,998.98
2019-03-17T10:19:04.031Z,998.97
2019-03-17T10:20:04.014Z,998.87
2019-03-17T10:21:03.979Z,998.90
2019-03-17T10:22:03.963Z,998.97
2019-03-17T10:23:03.944Z,998.89
2019-03-17T10:24:03.993Z,998.94
2019-03-17T10:25:03.900Z,998.87
2019-03-17T10:26:03.891Z,999.05
2019-03-17T10:27:03.863Z,999.09
2019-03-17T10:28:03.850Z,999.06
2019-03-17T10:29:03.827Z,999.02
2019-03-17T10:30:03.827Z,999.07
2019-03-17T10:31:03.791Z,999.06
2019-03-17T10:32:03.786Z,999.06
2019-03-17T10:33:03.760Z,999.07
2019-03-17T10:34:03.737Z,999.11
2019-03-17T10:35:03.724Z,999.15
2019-03-17T10:36:03.717Z,999.16
2019-03-17T10:37:03.677Z,999.18
2019-03-17T10:38:03.661Z,999.28
2019-03-17T10:39:12.458Z,999.17
2019-03-17T10:40:03.629Z,999.12
2019-03-17T10:41:03.629Z,999.22
2019-03-17T10:42:03.605Z,999.20
2019-03-17T10:43:03.572Z,999.31
2019-03-17T10:44:03.554Z,999.10
2019-03-17T10:45:03.552Z,999.14
2019-03-17T10:46:03.532Z,999.01
2019-03-17T10:47:03.538Z,999.06
2019-03-17T10:48:03.500Z,999.03
2019-03-17T10:49:03.471Z,999.15
2019-03-17T10:50:03.453Z,999.18
2019-03-17T10:51:03.467Z,999.21
2019-03-17T10:52:03.464Z,999.20
2019-03-17T10:53:03.403Z,999.15
2019-03-17T10:54:03.397Z,999.09
2019-03-17T10:55:03.371Z,999.16
2019-03-17T10:56:03.363Z,999.24
2019-03-17T10:57:03.353Z,999.26
2019-03-17T10:58:03.325Z,999.26
2019-03-17T10:59:03.297Z,999.16
2019-03-17T11:00:03.283Z,999.17
2019-03-17T11:01:03.262Z,999.16
2019-03-17T11:02:03.266Z,999.24
2019-03-17T11:03:03.224Z,999.25
2019-03-17T11:04:03.208Z,999.28
2019-03-17T11:05:03.198Z,999.33
2019-03-17T11:06:03.172Z,999.37
2019-03-17T11:07:03.172Z,999.29
2019-03-17T11:08:03.174Z,999.50
2019-03-17T11:10:45.097Z,999.51
2019-03-17T11:11:45.064Z,999.74
2019-03-17T11:12:45.050Z,999.69
2019-03-17T11:13:45.036Z,999.47
2019-03-17T11:14:45.025Z,999.62
2019-03-17T11:15:45.020Z,999.65
2019-03-17T11:16:44.985Z,999.74
2019-03-17T11:17:44.969Z,999.50
2019-03-17T11:18:44.953Z,999.62
2019-03-17T11:19:44.934Z,999.58
2019-03-17T11:20:44.939Z,999.45
2019-03-17T11:21:44.903Z,999.49
2019-03-17T11:22:44.891Z,999.43
2019-03-17T11:23:44.870Z,999.52
2019-03-17T11:24:44.866Z,999.56
2019-03-17T11:25:44.839Z,999.60
2019-03-17T11:26:44.839Z,999.64
2019-03-17T11:27:44.810Z,999.68
2019-03-17T11:28:44.813Z,999.78
2019-03-17T11:29:44.782Z,999.80
2019-03-17T11:30:44.763Z,999.75
2019-03-17T11:31:44.770Z,999.79
2019-03-17T11:32:44.749Z,999.89
2019-03-17T11:33:44.715Z,999.73
2019-03-17T11:34:44.720Z,999.88
2019-03-17T11:35:44.691Z,999.86
2019-03-17T11:36:44.713Z,999.84
2019-03-17T11:37:44.660Z,999.84
2019-03-17T11:38:44.632Z,999.91
2019-03-17T11:39:44.634Z,999.85
2019-03-17T11:40:44.603Z,999.89
2019-03-17T11:41:44.587Z,999.98
2019-03-17T11:42:44.567Z,1000.00
2019-03-17T11:43:44.581Z,999.96
2019-03-17T11:44:44.526Z,999.93
2019-03-17T11:45:44.521Z,1000.04
2019-03-17T11:46:44.489Z,1000.08
2019-03-17T11:47:44.482Z,1000.04
2019-03-17T11:48:44.475Z,999.97
2019-03-17T11:49:46.170Z,1000.11
2019-03-17T11:50:44.418Z,1000.20
2019-03-17T11:51:44.400Z,1000.24
2019-03-17T11:52:44.431Z,1000.27
2019-03-17T11:53:44.376Z,1000.23
2019-03-17T11:54:44.352Z,1000.20
2019-03-17T11:55:44.336Z,1000.33
2019-03-17T11:56:44.327Z,1000.44
2019-03-17T11:57:44.306Z,1000.42
2019-03-17T11:58:44.316Z,1000.41
2019-03-17T11:59:44.297Z,1000.46
2019-03-17T12:00:44.261Z,1000.32
2019-03-17T12:01:44.251Z,1000.42
2019-03-17T12:02:44.256Z,1000.42
2019-03-17T12:03:44.216Z,1000.44
2019-03-17T12:04:44.224Z,1000.42
2019-03-17T12:05:44.183Z,1000.50
2019-03-17T12:06:44.192Z,1000.43
2019-03-17T12:07:44.175Z,1000.52
2019-03-17T12:08:44.148Z,1000.60
2019-03-17T12:09:49.904Z,1000.63
2019-03-17T12:10:44.143Z,1000.57
2019-03-17T12:11:44.117Z,1000.53
2019-03-17T12:12:44.107Z,1000.56
2019-03-17T12:13:44.080Z,1000.53
2019-03-17T12:14:44.064Z,1000.73
2019-03-17T12:15:44.052Z,1000.80
2019-03-17T12:16:44.050Z,1000.70
2019-03-17T12:17:44.026Z,1000.62
2019-03-17T12:18:44.025Z,1000.60
2019-03-17T12:19:43.981Z,1000.73
2019-03-17T12:20:43.969Z,1000.80
2019-03-17T12:21:43.958Z,1000.76
2019-03-17T12:22:43.959Z,1000.79
2019-03-17T12:23:43.979Z,1001.05
2019-03-17T12:24:43.907Z,1001.08
2019-03-17T12:25:43.893Z,1001.26
2019-03-17T12:26:43.872Z,1001.36
2019-03-17T12:27:43.985Z,1001.13
2019-03-17T12:28:43.858Z,1001.16
2019-03-17T12:29:43.826Z,1001.22
2019-03-17T12:30:43.818Z,1001.22
2019-03-17T12:31:43.800Z,1001.22
2019-03-17T12:32:43.781Z,1001.33